createdAt,value
2022-10-25T00:00:00.793Z,23.40
2022-10-25T00:00:33.092Z,21.42
2022-10-25T00:01:05.704Z,23.50
2022-10-25T00:01:47.706Z,22.20
2022-10-25T00:02:21.851Z,22.90
2022-10-25T00:02:54.311Z,21.30
2022-10-25T00:03:26.579Z,21.25
2022-10-25T00:03:58.874Z,21.73
2022-10-25T00:04:31.127Z,21.65
2022-10-25T00:05:03.916Z,20.73
2022-10-25T00:05:36.640Z,21.20
2022-10-25T00:06:09.975Z,21.23
2022-10-25T00:06:42.279Z,22.75
2022-10-25T00:07:14.504Z,22.45
2022-10-25T00:07:47.069Z,19.15
2022-10-25T00:08:19.656Z,21.40
2022-10-25T00:08:52.057Z,21.02
2022-10-25T00:09:24.383Z,21.67
2022-10-25T00:09:56.676Z,21.77
2022-10-25T00:10:29.067Z,20.13
2022-10-25T00:11:01.336Z,22.05
2022-10-25T00:11:33.946Z,23.63
2022-10-25T00:12:06.408Z,22.23
2022-10-25T00:12:43.092Z,23.67
2022-10-25T00:13:15.462Z,22.20
2022-10-25T00:13:54.817Z,25.02
2022-10-25T00:14:27.148Z,24.35
2022-10-25T00:15:02.827Z,26.35
2022-10-25T00:15:36.207Z,24.25
2022-10-25T00:16:13.536Z,25.73
2022-10-25T00:16:45.785Z,26.92
2022-10-25T00:17:18.069Z,26.50
2022-10-25T00:17:50.386Z,27.70
2022-10-25T00:18:22.778Z,24.23
2022-10-25T00:18:55.717Z,27.80
2022-10-25T00:19:28.164Z,28.55
2022-10-25T00:20:00.499Z,29.08
2022-10-25T00:20:32.769Z,26.35
2022-10-25T00:21:05.359Z,29.80
2022-10-25T00:21:37.987Z,28.10
2022-10-25T00:22:10.277Z,26.15
2022-10-25T00:22:42.738Z,24.42
2022-10-25T00:23:15.154Z,25.45
2022-10-25T00:23:47.816Z,22.83
2022-10-25T00:24:20.124Z,27.88
2022-10-25T00:24:52.446Z,24.92
2022-10-25T00:25:24.868Z,23.08
2022-10-25T00:26:04.159Z,25.65
2022-10-25T00:26:36.496Z,26.75
2022-10-25T00:27:08.979Z,25.13
2022-10-25T00:27:41.259Z,24.20
2022-10-25T00:28:13.626Z,22.30
2022-10-25T00:28:46.016Z,23.17
2022-10-25T00:29:18.540Z,22.02
2022-10-25T00:29:52.173Z,26.02
2022-10-25T00:30:24.657Z,21.92
2022-10-25T00:31:00.883Z,21.75
2022-10-25T00:31:33.372Z,21.50
2022-10-25T00:32:05.662Z,20.27
2022-10-25T00:32:38.007Z,23.00
2022-10-25T00:33:10.457Z,21.58
2022-10-25T00:33:43.251Z,25.42
2022-10-25T00:34:15.515Z,21.83
2022-10-25T00:34:47.888Z,22.02
2022-10-25T00:35:20.154Z,24.00
2022-10-25T00:35:52.481Z,21.33
2022-10-25T00:36:26.214Z,25.60
2022-10-25T00:36:58.566Z,23.52
2022-10-25T00:37:31.059Z,24.45
2022-10-25T00:38:03.625Z,23.20
2022-10-25T00:38:36.290Z,24.65
2022-10-25T00:39:08.596Z,22.88
2022-10-25T00:39:41.465Z,24.13
2022-10-25T00:40:13.778Z,25.35
2022-10-25T00:40:46.020Z,24.33
2022-10-25T00:41:24.427Z,23.63
2022-10-25T00:41:57.490Z,23.33
2022-10-25T00:42:29.805Z,24.20
2022-10-25T00:43:02.161Z,23.67
2022-10-25T00:43:44.488Z,23.02
2022-10-25T00:44:35.476Z,22.63
2022-10-25T00:45:21.933Z,19.77
2022-10-25T00:45:54.355Z,21.98
2022-10-25T00:46:29.094Z,23.08
2022-10-25T00:47:02.783Z,22.98
2022-10-25T00:47:46.795Z,22.40
2022-10-25T00:48:19.467Z,24.13
2022-10-25T00:49:02.939Z,22.27
2022-10-25T00:49:35.438Z,23.33
2022-10-25T00:50:23.057Z,24.65
2022-10-25T00:50:55.760Z,23.92
2022-10-25T00:51:33.747Z,22.13
2022-10-25T00:52:06.647Z,22.67
2022-10-25T00:52:39.496Z,21.52
2022-10-25T00:53:13.896Z,24.67
2022-10-25T00:53:46.392Z,23.30
2022-10-25T00:54:26.876Z,25.08
2022-10-25T00:55:00.011Z,23.95
2022-10-25T00:55:32.924Z,27.27
2022-10-25T00:56:16.905Z,25.13
2022-10-25T00:56:50.842Z,22.27
2022-10-25T00:57:27.799Z,22.65
2022-10-25T00:58:02.398Z,23.55
2022-10-25T00:58:35.908Z,26.63
2022-10-25T00:59:11.000Z,26.02
2022-10-25T00:59:44.109Z,22.27
2022-10-25T01:00:16.465Z,23.20
2022-10-25T01:00:49.070Z,24.35
2022-10-25T01:01:22.186Z,24.95
2022-10-25T01:01:55.062Z,26.30
2022-10-25T01:02:27.831Z,24.65
2022-10-25T01:03:00.309Z,24.05
2022-10-25T01:03:33.889Z,24.73
2022-10-25T01:04:08.030Z,21.85
2022-10-25T01:04:40.799Z,23.25
2022-10-25T01:05:13.289Z,23.08
2022-10-25T01:05:46.451Z,24.75
2022-10-25T01:06:23.470Z,24.15
2022-10-25T01:06:55.848Z,23.35
2022-10-25T01:07:28.082Z,22.80
2022-10-25T01:08:00.582Z,23.02
2022-10-25T01:08:33.477Z,23.42
2022-10-25T01:09:07.167Z,25.52
2022-10-25T01:09:39.855Z,25.10
2022-10-25T01:10:12.422Z,24.85
2022-10-25T01:10:44.758Z,24.17
2022-10-25T01:11:54.783Z,24.77
2022-10-25T01:12:27.016Z,22.95
2022-10-25T01:13:01.390Z,24.65
2022-10-25T01:13:33.711Z,24.58
2022-10-25T01:14:07.640Z,23.08
2022-10-25T01:14:42.283Z,26.08
2022-10-25T01:15:14.682Z,24.10
2022-10-25T01:15:51.835Z,25.52
2022-10-25T01:16:39.305Z,23.63
2022-10-25T01:17:11.785Z,25.02
2022-10-25T01:17:59.277Z,23.00
2022-10-25T01:18:37.346Z,20.77
2022-10-25T01:19:24.709Z,25.52
2022-10-25T01:20:08.906Z,25.23
2022-10-25T01:20:59.895Z,22.88
2022-10-25T01:21:34.831Z,24.98
2022-10-25T01:22:09.791Z,23.98
2022-10-25T01:22:54.150Z,24.10
2022-10-25T01:23:26.360Z,22.70
2022-10-25T01:24:09.837Z,27.63
2022-10-25T01:25:00.869Z,24.00
2022-10-25T01:25:45.062Z,26.10
2022-10-25T01:26:35.876Z,23.80
2022-10-25T01:27:32.289Z,25.00
2022-10-25T01:28:04.985Z,22.88
2022-10-25T01:28:49.051Z,22.55
2022-10-25T01:29:39.675Z,22.38
2022-10-25T01:30:14.947Z,22.33
2022-10-25T01:31:05.334Z,24.20
2022-10-25T01:31:57.826Z,22.10
2022-10-25T01:32:38.786Z,24.08
2022-10-25T01:33:20.677Z,21.85
2022-10-25T01:34:11.717Z,24.75
2022-10-25T01:34:50.936Z,23.98
2022-10-25T01:35:28.339Z,23.58
2022-10-25T01:36:06.589Z,26.35
2022-10-25T01:36:57.688Z,25.60
2022-10-25T01:37:52.797Z,26.70
2022-10-25T01:38:29.380Z,24.25
2022-10-25T01:39:08.916Z,23.50
2022-10-25T01:39:43.952Z,25.77
2022-10-25T01:40:25.381Z,26.30
2022-10-25T01:41:00.256Z,23.02
2022-10-25T01:41:52.904Z,20.50
2022-10-25T01:42:33.208Z,22.40
2022-10-25T01:43:11.429Z,20.23
2022-10-25T01:43:48.940Z,23.17
2022-10-25T01:44:27.356Z,20.92
2022-10-25T01:45:02.727Z,21.10
2022-10-25T01:45:41.832Z,21.00
2022-10-25T01:46:14.220Z,21.70
2022-10-25T01:46:49.562Z,23.45
2022-10-25T01:47:24.970Z,22.25
2022-10-25T01:48:03.347Z,21.90
2022-10-25T01:48:38.877Z,21.23
2022-10-25T01:49:14.509Z,21.67
2022-10-25T01:50:05.394Z,20.67
2022-10-25T01:50:40.480Z,23.52
2022-10-25T01:51:15.391Z,22.48
2022-10-25T01:51:47.706Z,22.40
2022-10-25T01:52:21.137Z,22.10
2022-10-25T01:53:26.818Z,20.58
2022-10-25T01:53:59.164Z,25.58
2022-10-25T01:54:31.453Z,22.90
2022-10-25T01:55:06.147Z,22.50
2022-10-25T01:55:42.755Z,22.45
2022-10-25T01:56:22.039Z,21.67
2022-10-25T01:57:12.881Z,22.75
2022-10-25T01:58:08.254Z,21.42
2022-10-25T01:58:43.387Z,21.70
2022-10-25T01:59:18.399Z,21.50
2022-10-25T02:00:18.099Z,19.65
2022-10-25T02:00:58.859Z,23.42
2022-10-25T02:01:31.400Z,20.27
2022-10-25T02:02:15.200Z,20.58
2022-10-25T02:03:05.853Z,21.20
2022-10-25T02:03:44.232Z,21.50
2022-10-25T02:04:31.459Z,21.77
2022-10-25T02:05:06.672Z,22.33
2022-10-25T02:05:41.659Z,22.13
2022-10-25T02:06:16.910Z,24.23
2022-10-25T02:06:54.703Z,22.30
2022-10-25T02:07:32.218Z,22.50
2022-10-25T02:08:07.268Z,21.15
2022-10-25T02:08:53.562Z,25.08
2022-10-25T02:09:25.799Z,23.30
2022-10-25T02:10:07.852Z,24.83
2022-10-25T02:11:03.337Z,23.30
2022-10-25T02:11:36.673Z,22.83
2022-10-25T02:12:13.252Z,20.92
2022-10-25T02:12:55.758Z,22.17
2022-10-25T02:13:48.275Z,21.70
2022-10-25T02:14:34.969Z,22.98
2022-10-25T02:15:13.654Z,20.77
2022-10-25T02:15:54.388Z,21.05
2022-10-25T02:16:28.478Z,20.35
2022-10-25T02:17:04.227Z,22.27
2022-10-25T02:17:40.950Z,19.80
2022-10-25T02:18:15.976Z,21.77
2022-10-25T02:18:51.403Z,22.63
2022-10-25T02:19:27.786Z,24.33
2022-10-25T02:20:01.438Z,22.45
2022-10-25T02:20:34.913Z,22.88
2022-10-25T02:21:07.441Z,23.15
2022-10-25T02:21:40.590Z,22.35
2022-10-25T02:22:13.689Z,22.52
2022-10-25T02:22:46.602Z,18.95
2022-10-25T02:23:20.730Z,24.83
2022-10-25T02:23:54.061Z,22.58
2022-10-25T02:24:28.081Z,23.92
2022-10-25T02:25:01.420Z,23.98
2022-10-25T02:25:34.990Z,21.83
2022-10-25T02:26:08.715Z,21.13
2022-10-25T02:26:42.367Z,21.42
2022-10-25T02:27:15.613Z,24.70
2022-10-25T02:27:50.408Z,23.75
2022-10-25T02:28:24.816Z,22.15
2022-10-25T02:28:57.332Z,21.30
2022-10-25T02:29:31.431Z,23.55
2022-10-25T02:30:04.051Z,20.73
2022-10-25T02:30:36.999Z,22.65
2022-10-25T02:31:12.141Z,21.58
2022-10-25T02:31:45.054Z,21.52
2022-10-25T02:32:17.606Z,21.55
2022-10-25T02:32:50.308Z,21.80
2022-10-25T02:33:22.684Z,19.63
2022-10-25T02:33:54.959Z,22.42
2022-10-25T02:34:27.227Z,22.85
2022-10-25T02:34:59.617Z,25.77
2022-10-25T02:35:32.076Z,23.00
2022-10-25T02:36:05.022Z,22.48
2022-10-25T02:36:37.275Z,24.33
2022-10-25T02:37:09.891Z,22.13
2022-10-25T02:37:42.318Z,22.58
2022-10-25T02:38:14.868Z,25.95
2022-10-25T02:38:48.134Z,25.67
2022-10-25T02:39:22.086Z,24.15
2022-10-25T02:39:54.550Z,21.33
2022-10-25T02:40:27.243Z,22.73
2022-10-25T02:41:00.518Z,22.58
2022-10-25T02:41:34.012Z,23.27
2022-10-25T02:42:06.434Z,22.45
2022-10-25T02:42:38.763Z,23.90
2022-10-25T02:43:10.993Z,22.73
2022-10-25T02:43:43.514Z,23.42
2022-10-25T02:44:15.997Z,21.73
2022-10-25T02:44:48.303Z,22.83
2022-10-25T02:45:20.553Z,17.67
2022-10-25T02:45:52.879Z,21.08
2022-10-25T02:46:25.728Z,18.77
2022-10-25T02:46:58.285Z,16.58
2022-10-25T02:47:30.750Z,21.15
2022-10-25T02:48:03.035Z,21.15
2022-10-25T02:48:35.683Z,21.60
2022-10-25T02:49:08.182Z,19.35
2022-10-25T02:49:40.483Z,16.77
2022-10-25T02:50:12.802Z,18.08
2022-10-25T02:50:45.051Z,20.20
2022-10-25T02:51:17.708Z,19.67
2022-10-25T02:52:27.340Z,18.45
2022-10-25T02:52:59.635Z,17.80
2022-10-25T02:53:32.348Z,18.67
2022-10-25T02:54:04.610Z,19.60
2022-10-25T02:54:36.910Z,20.15
2022-10-25T02:55:09.385Z,21.02
2022-10-25T02:55:41.684Z,21.85
2022-10-25T02:56:15.617Z,19.65
2022-10-25T02:56:48.913Z,20.13
2022-10-25T02:57:21.241Z,19.45
2022-10-25T02:57:53.503Z,21.45
2022-10-25T02:58:25.800Z,18.73
2022-10-25T02:58:58.473Z,19.70
2022-10-25T02:59:30.764Z,22.05
2022-10-25T03:00:04.343Z,23.92
2022-10-25T03:00:36.963Z,18.60
2022-10-25T03:01:09.748Z,20.23
2022-10-25T03:01:42.261Z,20.13
2022-10-25T03:02:14.553Z,18.92
2022-10-25T03:02:46.944Z,20.63
2022-10-25T03:03:19.502Z,20.42
2022-10-25T03:03:51.823Z,21.73
2022-10-25T03:04:24.144Z,20.42
2022-10-25T03:04:56.501Z,20.63
2022-10-25T03:05:28.850Z,19.25
2022-10-25T03:06:01.155Z,19.48
2022-10-25T03:06:33.510Z,19.00
2022-10-25T03:07:06.328Z,18.83
2022-10-25T03:07:38.726Z,18.92
2022-10-25T03:08:10.978Z,19.85
2022-10-25T03:08:44.707Z,17.83
2022-10-25T03:09:16.998Z,18.65
2022-10-25T03:09:49.302Z,16.77
2022-10-25T03:10:21.583Z,19.40
2022-10-25T03:10:53.861Z,17.48
2022-10-25T03:11:26.113Z,16.95
2022-10-25T03:11:58.405Z,16.45
2022-10-25T03:12:30.720Z,16.98
2022-10-25T03:13:02.994Z,18.20
2022-10-25T03:13:35.576Z,17.20
2022-10-25T03:14:07.936Z,16.73
2022-10-25T03:14:40.668Z,14.15
2022-10-25T03:15:12.913Z,18.20
2022-10-25T03:15:45.819Z,18.38
2022-10-25T03:16:18.151Z,19.15
2022-10-25T03:16:50.409Z,20.98
2022-10-25T03:17:22.908Z,18.90
2022-10-25T03:17:55.254Z,16.27
2022-10-25T03:18:27.471Z,18.05
2022-10-25T03:19:00.096Z,18.83
2022-10-25T03:19:34.229Z,16.58
2022-10-25T03:20:06.864Z,18.75
2022-10-25T03:20:39.303Z,18.13
2022-10-25T03:21:11.813Z,17.10
2022-10-25T03:21:44.130Z,16.13
2022-10-25T03:22:16.383Z,17.88
2022-10-25T03:22:48.675Z,16.98
2022-10-25T03:23:20.904Z,19.20
2022-10-25T03:23:53.472Z,17.63
2022-10-25T03:24:25.764Z,14.10
2022-10-25T03:24:58.338Z,17.38
2022-10-25T03:25:30.905Z,18.60
2022-10-25T03:26:03.713Z,16.55
2022-10-25T03:26:36.058Z,17.27
2022-10-25T03:27:08.337Z,16.70
2022-10-25T03:27:40.861Z,15.65
2022-10-25T03:28:13.235Z,16.20
2022-10-25T03:28:45.739Z,17.00
2022-10-25T03:29:18.046Z,16.63
2022-10-25T03:29:50.363Z,15.95
2022-10-25T03:30:22.767Z,16.55
2022-10-25T03:30:55.422Z,15.40
2022-10-25T03:31:27.774Z,17.08
2022-10-25T03:32:00.047Z,15.63
2022-10-25T03:32:32.499Z,16.75
2022-10-25T03:33:04.991Z,15.65
2022-10-25T03:33:37.327Z,15.05
2022-10-25T03:34:09.570Z,16.20
2022-10-25T03:34:42.002Z,17.30
2022-10-25T03:35:14.338Z,16.38
2022-10-25T03:35:49.591Z,15.85
2022-10-25T03:36:21.949Z,15.45
2022-10-25T03:36:54.212Z,15.85
2022-10-25T03:37:26.523Z,16.17
2022-10-25T03:37:58.843Z,15.23
2022-10-25T03:38:31.102Z,13.95
2022-10-25T03:39:03.443Z,13.50
2022-10-25T03:39:35.676Z,13.80
2022-10-25T03:40:08.179Z,15.63
2022-10-25T03:40:41.482Z,14.23
2022-10-25T03:41:13.805Z,13.73
2022-10-25T03:41:46.109Z,15.20
2022-10-25T03:42:18.402Z,13.95
2022-10-25T03:42:50.827Z,12.82
2022-10-25T03:44:00.265Z,15.10
2022-10-25T03:44:32.604Z,14.40
2022-10-25T03:45:05.224Z,13.55
2022-10-25T03:45:37.404Z,13.18
2022-10-25T03:46:09.867Z,15.20
2022-10-25T03:46:42.135Z,11.85
2022-10-25T03:47:14.559Z,11.77
2022-10-25T03:47:47.154Z,11.35
2022-10-25T03:48:19.572Z,12.10
2022-10-25T03:48:51.812Z,11.20
2022-10-25T03:49:24.118Z,12.70
2022-10-25T03:49:56.367Z,11.38
2022-10-25T03:50:28.862Z,10.85
2022-10-25T03:51:01.168Z,11.55
2022-10-25T03:51:33.791Z,10.32
2022-10-25T03:52:08.921Z,11.40
2022-10-25T03:52:41.399Z,11.95
2022-10-25T03:53:13.699Z,11.98
2022-10-25T03:53:45.945Z,12.65
2022-10-25T03:54:18.193Z,11.38
2022-10-25T03:54:50.491Z,11.13
2022-10-25T03:55:22.833Z,11.52
2022-10-25T03:55:55.290Z,11.15
2022-10-25T03:56:27.666Z,11.43
2022-10-25T03:57:00.475Z,10.35
2022-10-25T03:57:32.915Z,11.32
2022-10-25T03:58:05.178Z,11.65
2022-10-25T03:58:37.419Z,10.73
2022-10-25T03:59:09.657Z,9.48
2022-10-25T03:59:42.059Z,9.88
2022-10-25T04:00:14.716Z,11.38
2022-10-25T04:00:47.007Z,9.25
2022-10-25T04:01:19.575Z,8.50
2022-10-25T04:01:52.033Z,9.15
2022-10-25T04:02:24.340Z,9.43
2022-10-25T04:03:02.125Z,8.82
2022-10-25T04:03:35.029Z,9.02
2022-10-25T04:04:07.385Z,9.82
2022-10-25T04:04:39.757Z,9.00
2022-10-25T04:05:12.192Z,9.40
2022-10-25T04:05:44.421Z,8.85
2022-10-25T04:06:16.745Z,8.18
2022-10-25T04:06:49.057Z,8.23
2022-10-25T04:07:21.421Z,9.48
2022-10-25T04:07:53.923Z,8.40
2022-10-25T04:08:26.208Z,9.70
2022-10-25T04:08:58.587Z,9.85
2022-10-25T04:09:30.818Z,10.45
2022-10-25T04:10:03.573Z,8.70
2022-10-25T04:10:36.022Z,9.38
2022-10-25T04:11:08.369Z,8.63
2022-10-25T04:11:40.622Z,8.23
2022-10-25T04:12:13.121Z,8.75
2022-10-25T04:12:46.019Z,9.00
2022-10-25T04:13:18.377Z,8.60
2022-10-25T04:13:50.648Z,9.88
2022-10-25T04:14:23.114Z,9.13
2022-10-25T04:14:55.602Z,8.45
2022-10-25T04:15:27.940Z,8.27
2022-10-25T04:16:00.393Z,9.07
2022-10-25T04:16:32.660Z,8.82
2022-10-25T04:17:05.038Z,8.88
2022-10-25T04:17:37.415Z,8.35
2022-10-25T04:18:09.710Z,8.90
2022-10-25T04:18:41.935Z,10.02
2022-10-25T04:19:14.291Z,10.05
2022-10-25T04:19:46.673Z,10.63
2022-10-25T04:20:19.136Z,11.32
2022-10-25T04:20:51.493Z,11.32
2022-10-25T04:21:23.984Z,12.30
2022-10-25T04:21:56.301Z,12.18
2022-10-25T04:22:28.590Z,13.05
2022-10-25T04:23:00.950Z,13.45
2022-10-25T04:23:33.332Z,12.80
2022-10-25T04:24:05.913Z,12.10
2022-10-25T04:24:38.200Z,11.63
2022-10-25T04:25:10.435Z,10.63
2022-10-25T04:25:42.731Z,10.93
2022-10-25T04:26:17.787Z,11.48
2022-10-25T04:26:50.112Z,11.63
2022-10-25T04:27:22.572Z,12.70
2022-10-25T04:27:54.969Z,10.73
2022-10-25T04:28:27.301Z,9.88
2022-10-25T04:28:59.734Z,10.85
2022-10-25T04:29:32.016Z,10.38
2022-10-25T04:30:04.466Z,10.40
2022-10-25T04:30:38.826Z,9.88
2022-10-25T04:31:11.271Z,9.77
2022-10-25T04:31:43.736Z,9.27
2022-10-25T04:32:16.094Z,8.57
2022-10-25T04:32:48.653Z,9.73
2022-10-25T04:33:21.309Z,9.65
2022-10-25T04:33:54.544Z,9.65
2022-10-25T04:34:26.803Z,10.00
2022-10-25T04:34:59.055Z,11.05
2022-10-25T04:35:31.514Z,10.63
2022-10-25T04:36:03.947Z,10.43
2022-10-25T04:36:36.230Z,10.90
2022-10-25T04:37:08.535Z,10.32
2022-10-25T04:37:40.802Z,10.65
2022-10-25T04:38:13.200Z,10.25
2022-10-25T04:38:48.327Z,11.88
2022-10-25T04:39:20.633Z,12.45
2022-10-25T04:39:52.974Z,10.60
2022-10-25T04:40:25.655Z,10.23
2022-10-25T04:40:58.935Z,9.77
2022-10-25T04:41:31.281Z,10.05
2022-10-25T04:42:03.679Z,9.90
2022-10-25T04:42:36.270Z,11.30
2022-10-25T04:43:08.606Z,11.70
2022-10-25T04:43:40.866Z,10.70
2022-10-25T04:44:13.205Z,10.27
2022-10-25T04:44:45.533Z,10.18
2022-10-25T04:45:17.834Z,9.07
2022-10-25T04:45:50.358Z,9.73
2022-10-25T04:46:23.099Z,11.23
2022-10-25T04:46:55.565Z,10.35
2022-10-25T04:47:30.573Z,9.18
2022-10-25T04:48:02.909Z,10.07
2022-10-25T04:48:38.803Z,9.25
2022-10-25T04:49:14.638Z,9.27
2022-10-25T04:49:47.116Z,10.45
2022-10-25T04:50:19.503Z,11.02
2022-10-25T04:50:51.968Z,9.73
2022-10-25T04:51:24.339Z,9.25
2022-10-25T04:51:56.677Z,9.50
2022-10-25T04:52:29.994Z,9.90
2022-10-25T04:53:02.286Z,9.45
2022-10-25T04:53:34.585Z,8.32
2022-10-25T04:54:06.867Z,8.68
2022-10-25T04:54:39.323Z,10.02
2022-10-25T04:55:11.620Z,9.98
2022-10-25T04:55:44.086Z,9.88
2022-10-25T04:56:16.545Z,10.48
2022-10-25T04:56:48.854Z,9.50
2022-10-25T04:57:21.283Z,10.20
2022-10-25T04:57:53.593Z,12.90
2022-10-25T04:58:30.423Z,12.65
2022-10-25T04:59:03.941Z,14.63
2022-10-25T04:59:36.182Z,15.45
2022-10-25T05:00:08.854Z,14.68
2022-10-25T05:00:41.128Z,13.52
2022-10-25T05:01:14.813Z,12.27
2022-10-25T05:01:47.253Z,13.43
2022-10-25T05:02:20.129Z,13.48
2022-10-25T05:02:53.043Z,15.55
2022-10-25T05:03:25.371Z,14.98
2022-10-25T05:03:57.634Z,12.05
2022-10-25T05:04:29.999Z,12.50
2022-10-25T05:05:02.308Z,15.02
2022-10-25T05:05:34.684Z,13.77
2022-10-25T05:06:07.180Z,13.10
2022-10-25T05:06:39.479Z,12.40
2022-10-25T05:07:11.988Z,14.55
2022-10-25T05:07:44.348Z,13.90
2022-10-25T05:08:16.699Z,14.80
2022-10-25T05:08:50.115Z,14.05
2022-10-25T05:09:22.486Z,13.20
2022-10-25T05:09:54.970Z,13.10
2022-10-25T05:10:27.226Z,13.95
2022-10-25T05:10:59.737Z,15.23
2022-10-25T05:11:32.807Z,14.05
2022-10-25T05:12:05.503Z,14.18
2022-10-25T05:12:38.233Z,13.27
2022-10-25T05:13:10.698Z,14.13
2022-10-25T05:13:43.458Z,12.75
2022-10-25T05:14:15.768Z,13.85
2022-10-25T05:14:48.429Z,13.32
2022-10-25T05:15:20.709Z,15.43
2022-10-25T05:15:56.848Z,13.20
2022-10-25T05:16:29.275Z,12.48
2022-10-25T05:17:01.791Z,12.43
2022-10-25T05:17:34.054Z,13.40
2022-10-25T05:18:06.464Z,12.98
2022-10-25T05:18:38.816Z,12.75
2022-10-25T05:19:11.603Z,12.82
2022-10-25T05:19:43.996Z,13.30
2022-10-25T05:20:16.472Z,15.63
2022-10-25T05:20:52.853Z,12.82
2022-10-25T05:21:31.360Z,13.88
2022-10-25T05:22:03.992Z,14.93
2022-10-25T05:22:36.245Z,14.32
2022-10-25T05:23:08.486Z,14.02
2022-10-25T05:23:41.115Z,13.55
2022-10-25T05:24:13.366Z,12.73
2022-10-25T05:24:45.643Z,13.80
2022-10-25T05:25:17.916Z,12.85
2022-10-25T05:25:59.867Z,13.18
2022-10-25T05:26:32.446Z,13.38
2022-10-25T05:27:05.058Z,12.68
2022-10-25T05:27:38.384Z,12.15
2022-10-25T05:28:10.624Z,12.75
2022-10-25T05:28:44.084Z,15.02
2022-10-25T05:29:16.616Z,14.40
2022-10-25T05:29:49.131Z,14.88
2022-10-25T05:30:21.374Z,15.20
2022-10-25T05:30:53.611Z,16.02
2022-10-25T05:31:26.824Z,16.35
2022-10-25T05:32:00.099Z,16.42
2022-10-25T05:32:32.544Z,12.80
2022-10-25T05:33:04.986Z,14.98
2022-10-25T05:33:37.507Z,13.13
2022-10-25T05:34:10.006Z,15.27
2022-10-25T05:34:42.236Z,13.80
2022-10-25T05:35:14.595Z,13.25
2022-10-25T05:35:46.817Z,14.98
2022-10-25T05:36:19.553Z,14.25
2022-10-25T05:36:51.898Z,15.00
2022-10-25T05:37:24.194Z,15.98
2022-10-25T05:37:56.650Z,14.80
2022-10-25T05:38:31.084Z,15.25
2022-10-25T05:39:05.195Z,14.13
2022-10-25T05:39:37.466Z,16.10
2022-10-25T05:40:10.172Z,15.73
2022-10-25T05:40:42.516Z,14.55
2022-10-25T05:41:15.794Z,14.18
2022-10-25T05:41:48.130Z,13.93
2022-10-25T05:42:20.393Z,15.70
2022-10-25T05:42:53.555Z,14.85
2022-10-25T05:43:26.278Z,15.90
2022-10-25T05:43:59.211Z,15.98
2022-10-25T05:44:31.450Z,15.75
2022-10-25T05:45:03.933Z,15.15
2022-10-25T05:45:36.176Z,14.27
2022-10-25T05:46:12.435Z,14.38
2022-10-25T05:46:45.287Z,13.68
2022-10-25T05:47:17.539Z,13.55
2022-10-25T05:47:49.840Z,15.07
2022-10-25T05:48:22.286Z,13.05
2022-10-25T05:48:54.525Z,13.43
2022-10-25T05:49:26.831Z,13.52
2022-10-25T05:49:59.091Z,13.70
2022-10-25T05:50:31.387Z,13.05
2022-10-25T05:51:28.654Z,13.73
2022-10-25T05:52:02.230Z,12.68
2022-10-25T05:52:34.578Z,14.52
2022-10-25T05:53:06.807Z,13.68
2022-10-25T05:53:42.492Z,14.10
2022-10-25T05:54:15.561Z,14.52
2022-10-25T05:54:47.859Z,13.80
2022-10-25T05:55:20.369Z,14.32
2022-10-25T05:55:52.888Z,13.60
2022-10-25T05:56:26.661Z,13.65
2022-10-25T05:56:59.239Z,12.82
2022-10-25T05:57:31.543Z,12.18
2022-10-25T05:58:04.137Z,12.40
2022-10-25T05:58:36.614Z,12.82
2022-10-25T05:59:10.127Z,10.95
2022-10-25T05:59:42.410Z,13.25
2022-10-25T06:00:14.790Z,12.10
2022-10-25T06:00:47.166Z,12.80
2022-10-25T06:01:21.067Z,13.15
2022-10-25T06:01:53.539Z,13.32
2022-10-25T06:02:26.141Z,14.80
2022-10-25T06:03:00.541Z,13.63
2022-10-25T06:03:33.039Z,14.13
2022-10-25T06:04:05.420Z,13.48
2022-10-25T06:04:37.744Z,13.85
2022-10-25T06:05:10.234Z,14.15
2022-10-25T06:05:42.539Z,13.98
2022-10-25T06:06:15.138Z,15.55
2022-10-25T06:06:47.983Z,12.88
2022-10-25T06:07:20.301Z,13.48
2022-10-25T06:07:52.537Z,13.30
2022-10-25T06:08:25.007Z,14.32
2022-10-25T06:08:58.223Z,13.10
2022-10-25T06:09:30.527Z,12.63
2022-10-25T06:10:05.035Z,13.05
2022-10-25T06:10:39.560Z,13.75
2022-10-25T06:11:16.078Z,12.73
2022-10-25T06:11:48.334Z,12.25
2022-10-25T06:12:20.674Z,13.02
2022-10-25T06:12:54.019Z,13.43
2022-10-25T06:13:26.294Z,14.15
2022-10-25T06:13:59.072Z,12.98
2022-10-25T06:14:31.398Z,12.80
2022-10-25T06:15:03.799Z,12.45
2022-10-25T06:15:38.697Z,13.95
2022-10-25T06:16:15.641Z,12.13
2022-10-25T06:16:47.948Z,12.77
2022-10-25T06:17:20.317Z,12.60
2022-10-25T06:17:52.566Z,13.35
2022-10-25T06:18:24.895Z,13.40
2022-10-25T06:18:57.280Z,12.63
2022-10-25T06:19:29.728Z,11.90
2022-10-25T06:20:02.035Z,12.02
2022-10-25T06:20:34.389Z,12.65
2022-10-25T06:21:10.812Z,11.63
2022-10-25T06:21:43.198Z,11.07
2022-10-25T06:22:15.621Z,12.20
2022-10-25T06:22:48.312Z,10.82
2022-10-25T06:23:20.844Z,13.52
2022-10-25T06:23:53.641Z,12.85
2022-10-25T06:24:26.015Z,11.25
2022-10-25T06:24:58.267Z,11.98
2022-10-25T06:25:30.609Z,12.43
2022-10-25T06:26:03.953Z,13.63
2022-10-25T06:26:36.308Z,11.90
2022-10-25T06:27:08.602Z,11.93
2022-10-25T06:27:40.907Z,11.02
2022-10-25T06:28:13.189Z,11.93
2022-10-25T06:28:45.788Z,12.60
2022-10-25T06:29:18.168Z,12.10
2022-10-25T06:29:50.395Z,11.57
2022-10-25T06:30:22.583Z,11.32
2022-10-25T06:30:54.919Z,13.10
2022-10-25T06:31:27.274Z,12.10
2022-10-25T06:31:59.575Z,12.05
2022-10-25T06:32:31.891Z,12.25
2022-10-25T06:33:04.787Z,11.55
2022-10-25T06:33:37.339Z,11.95
2022-10-25T06:34:09.748Z,12.75
2022-10-25T06:34:42.262Z,12.93
2022-10-25T06:35:14.979Z,12.63
2022-10-25T06:35:47.280Z,13.20
2022-10-25T06:36:20.858Z,13.43
2022-10-25T06:36:53.249Z,11.57
2022-10-25T06:37:25.525Z,11.77
2022-10-25T06:38:04.060Z,13.32
2022-10-25T06:38:36.752Z,13.00
2022-10-25T06:39:09.193Z,14.23
2022-10-25T06:39:41.472Z,13.85
2022-10-25T06:40:13.800Z,14.82
2022-10-25T06:40:46.154Z,15.30
2022-10-25T06:41:19.496Z,16.10
2022-10-25T06:41:51.830Z,13.68
2022-10-25T06:42:24.205Z,15.13
2022-10-25T06:42:56.794Z,13.80
2022-10-25T06:43:29.331Z,14.02
2022-10-25T06:44:06.222Z,14.57
2022-10-25T06:44:39.352Z,12.05
2022-10-25T06:45:11.775Z,12.82
2022-10-25T06:45:44.092Z,15.18
2022-10-25T06:46:22.859Z,13.88
2022-10-25T06:47:47.693Z,12.68
2022-10-25T06:48:20.143Z,11.70
2022-10-25T06:48:53.523Z,11.05
2022-10-25T06:49:25.939Z,11.18
2022-10-25T06:49:58.264Z,11.48
2022-10-25T06:50:30.603Z,10.23
2022-10-25T06:51:06.681Z,11.90
2022-10-25T06:51:38.994Z,11.32
2022-10-25T06:52:11.435Z,11.93
2022-10-25T06:52:43.835Z,10.75
2022-10-25T06:53:16.337Z,10.98
2022-10-25T06:53:53.506Z,11.73
2022-10-25T06:54:27.038Z,11.35
2022-10-25T06:54:59.276Z,10.93
2022-10-25T06:55:31.521Z,10.52
2022-10-25T06:56:05.962Z,11.57
2022-10-25T06:56:38.889Z,11.45
2022-10-25T06:57:11.213Z,11.38
2022-10-25T06:57:43.654Z,12.40
2022-10-25T06:58:16.034Z,11.75
2022-10-25T06:58:48.366Z,11.30
2022-10-25T06:59:21.150Z,11.60
2022-10-25T06:59:53.532Z,12.35
2022-10-25T07:00:25.820Z,12.48
2022-10-25T07:01:08.720Z,11.75
2022-10-25T07:01:41.174Z,12.88
2022-10-25T07:02:13.568Z,14.10
2022-10-25T07:02:53.648Z,13.68
2022-10-25T07:03:30.508Z,13.45
2022-10-25T07:04:03.444Z,12.55
2022-10-25T07:04:36.035Z,14.32
2022-10-25T07:05:08.588Z,13.70
2022-10-25T07:05:40.819Z,15.02
2022-10-25T07:06:14.276Z,15.82
2022-10-25T07:06:49.963Z,14.30
2022-10-25T07:07:25.222Z,15.75
2022-10-25T07:07:57.535Z,18.27
2022-10-25T07:08:29.758Z,18.10
2022-10-25T07:09:02.481Z,18.65
2022-10-25T07:09:34.826Z,20.45
2022-10-25T07:10:07.266Z,20.95
2022-10-25T07:10:40.196Z,25.98
2022-10-25T07:11:17.046Z,24.75
2022-10-25T07:11:49.353Z,20.90
2022-10-25T07:12:21.703Z,20.02
2022-10-25T07:12:54.054Z,18.45
2022-10-25T07:13:26.581Z,20.65
2022-10-25T07:13:59.865Z,19.27
2022-10-25T07:14:32.204Z,15.98
2022-10-25T07:15:04.735Z,14.93
2022-10-25T07:15:38.698Z,16.13
2022-10-25T07:16:14.626Z,15.82
2022-10-25T07:16:46.870Z,14.95
2022-10-25T07:17:19.183Z,15.98
2022-10-25T07:17:51.573Z,13.82
2022-10-25T07:18:23.991Z,13.95
2022-10-25T07:18:59.894Z,14.32
2022-10-25T07:19:32.201Z,14.85
2022-10-25T07:20:04.627Z,14.82
2022-10-25T07:20:36.938Z,14.23
2022-10-25T07:21:13.201Z,13.32
2022-10-25T07:21:45.507Z,13.57